createdAt,value
2019-06-07T00:00:38.064Z,77.66
2019-06-07T00:01:26.257Z,77.80
2019-06-07T00:02:24.270Z,78.41
2019-06-07T00:03:29.897Z,78.75
2019-06-07T00:04:26.766Z,79.57
2019-06-07T00:05:24.840Z,80.12
2019-06-07T00:06:26.024Z,79.91
2019-06-07T00:07:26.280Z,80.53
2019-06-07T00:08:29.023Z,80.33
2019-06-07T00:09:27.263Z,80.83
2019-06-07T00:10:35.793Z,80.26
2019-06-07T00:11:28.788Z,80.67
2019-06-07T00:12:26.764Z,80.57
2019-06-07T00:13:26.240Z,80.26
2019-06-07T00:14:26.406Z,80.67
2019-06-07T00:15:29.026Z,80.98
2019-06-07T00:16:27.761Z,81.18
2019-06-07T00:17:26.923Z,80.74
2019-06-07T00:18:27.068Z,80.88
2019-06-07T00:19:27.222Z,81.35
2019-06-07T00:20:27.381Z,80.19
2019-06-07T00:22:13.015Z,80.22
2019-06-07T00:22:33.469Z,80.12
2019-06-07T00:23:28.897Z,80.33
2019-06-07T00:24:28.152Z,80.33
2019-06-07T00:25:28.302Z,81.15
2019-06-07T00:27:01.961Z,80.94
2019-06-07T00:27:28.682Z,81.65
2019-06-07T00:28:28.932Z,80.63
2019-06-07T00:29:29.080Z,80.94
2019-06-07T00:30:41.209Z,80.12
2019-06-07T00:31:31.344Z,80.12
2019-06-07T00:32:29.525Z,80.53
2019-06-07T00:33:29.776Z,80.83
2019-06-07T00:34:29.998Z,80.53
2019-06-07T00:35:30.093Z,81.08
2019-06-07T00:36:30.329Z,80.88
2019-06-07T00:37:30.458Z,81.49
2019-06-07T00:38:30.591Z,81.59
2019-06-07T00:39:30.826Z,82.24
2019-06-07T00:40:32.270Z,82.35
2019-06-07T00:41:32.280Z,82.35
2019-06-07T00:42:31.408Z,82.76
2019-06-07T00:43:31.633Z,83.10
2019-06-07T00:44:31.920Z,83.06
2019-06-07T00:45:32.057Z,83.37
2019-06-07T00:46:32.204Z,83.47
2019-06-07T00:47:32.334Z,83.51
2019-06-07T00:48:33.261Z,83.72
2019-06-07T00:49:41.052Z,83.37
2019-06-07T00:50:35.790Z,83.06
2019-06-07T00:51:49.641Z,83.27
2019-06-07T00:53:13.180Z,83.78
2019-06-07T00:53:35.353Z,83.88
2019-06-07T00:54:33.528Z,83.82
2019-06-07T00:55:33.699Z,83.17
2019-06-07T00:56:33.862Z,82.96
2019-06-07T00:57:34.039Z,82.65
2019-06-07T00:58:34.236Z,82.65
2019-06-07T00:59:34.429Z,82.39
2019-06-07T01:00:34.581Z,82.55
2019-06-07T01:01:35.299Z,83.00
2019-06-07T01:02:34.957Z,83.20
2019-06-07T01:03:35.129Z,83.41
2019-06-07T01:04:35.273Z,83.76
2019-06-07T01:05:36.279Z,83.82
2019-06-07T01:06:35.660Z,83.72
2019-06-07T01:07:35.811Z,84.53
2019-06-07T01:08:35.944Z,84.03
2019-06-07T01:09:36.228Z,84.12
2019-06-07T01:10:52.956Z,84.03
2019-06-07T01:11:38.485Z,83.96
2019-06-07T01:12:36.780Z,84.27
2019-06-07T01:13:36.905Z,84.78
2019-06-07T01:14:37.123Z,85.50
2019-06-07T01:15:37.316Z,85.39
2019-06-07T01:16:56.398Z,85.30
2019-06-07T01:17:49.993Z,85.60
2019-06-07T01:18:46.071Z,85.30
2019-06-07T01:19:40.005Z,84.78
2019-06-07T01:20:38.261Z,85.71
2019-06-07T01:21:38.406Z,85.30
2019-06-07T01:23:51.965Z,85.19
2019-06-07T01:24:07.928Z,85.19
2019-06-07T01:24:40.837Z,84.99
2019-06-07T01:25:39.146Z,85.50
2019-06-07T01:26:39.286Z,85.05
2019-06-07T01:27:39.465Z,85.25
2019-06-07T01:28:39.668Z,84.12
2019-06-07T01:29:39.847Z,83.72
2019-06-07T01:30:39.991Z,84.74
2019-06-07T01:31:40.156Z,84.60
2019-06-07T01:32:40.324Z,83.78
2019-06-07T01:33:50.763Z,82.45
2019-06-07T01:34:42.692Z,82.45
2019-06-07T01:35:41.830Z,82.35
2019-06-07T01:36:41.128Z,82.35
2019-06-07T01:37:41.339Z,82.86
2019-06-07T01:38:41.498Z,82.96
2019-06-07T01:39:42.358Z,83.78
2019-06-07T01:40:41.852Z,83.17
2019-06-07T01:41:42.001Z,83.20
2019-06-07T01:42:42.155Z,84.03
2019-06-07T01:43:42.283Z,83.41
2019-06-07T01:44:42.415Z,83.65
2019-06-07T01:45:42.566Z,85.09
2019-06-07T01:46:42.707Z,84.78
2019-06-07T01:47:43.359Z,85.19
2019-06-07T01:48:49.337Z,85.19
2019-06-07T01:50:11.220Z,85.50
2019-06-07T01:50:43.397Z,84.88
2019-06-07T01:51:43.676Z,84.88
2019-06-07T01:52:44.333Z,85.09
2019-06-07T01:53:44.023Z,86.07
2019-06-07T01:54:57.887Z,85.05
2019-06-07T01:55:46.350Z,83.17
2019-06-07T01:56:44.572Z,86.44
2019-06-07T01:57:48.398Z,85.89
2019-06-07T01:58:45.861Z,85.03
2019-06-07T01:59:45.003Z,83.91
2019-06-07T02:00:45.135Z,83.46
2019-06-07T02:01:45.247Z,82.50
2019-06-07T02:02:45.525Z,82.20
2019-06-07T02:03:45.683Z,81.85
2019-06-07T02:04:45.844Z,81.44
2019-06-07T02:05:45.987Z,81.13
2019-06-07T02:06:46.120Z,80.89
2019-06-07T02:07:46.253Z,80.48
2019-06-07T02:08:46.866Z,80.18
2019-06-07T02:09:46.601Z,80.07
2019-06-07T02:10:46.739Z,80.28
2019-06-07T02:11:46.886Z,80.18
2019-06-07T02:12:47.019Z,80.28
2019-06-07T02:13:47.841Z,80.18
2019-06-07T02:14:47.330Z,79.46
2019-06-07T02:15:47.465Z,78.07
2019-06-07T02:16:47.594Z,78.75
2019-06-07T02:18:23.207Z,80.01
2019-06-07T02:19:01.225Z,80.05
2019-06-07T02:19:50.394Z,79.53
2019-06-07T02:20:48.221Z,80.39
2019-06-07T02:21:48.929Z,81.24
2019-06-07T02:22:49.360Z,82.27
2019-06-07T02:23:49.361Z,82.82
2019-06-07T02:25:34.160Z,82.65
2019-06-07T02:25:50.753Z,83.41
2019-06-07T02:26:50.864Z,83.61
2019-06-07T02:27:51.432Z,83.92
2019-06-07T02:28:49.656Z,84.12
2019-06-07T02:29:49.912Z,84.09
2019-06-07T02:30:59.524Z,84.03
2019-06-07T02:31:52.387Z,84.12
2019-06-07T02:32:50.898Z,84.23
2019-06-07T02:33:50.433Z,84.23
2019-06-07T02:34:50.630Z,84.44
2019-06-07T02:35:50.793Z,84.99
2019-06-07T02:36:51.025Z,84.95
2019-06-07T02:37:51.187Z,85.36
2019-06-07T02:38:51.370Z,85.30
2019-06-07T02:39:52.376Z,85.66
2019-06-07T02:40:52.404Z,84.95
2019-06-07T02:41:52.928Z,85.36
2019-06-07T02:42:52.900Z,85.19
2019-06-07T02:43:52.324Z,85.36
2019-06-07T02:44:53.388Z,84.95
2019-06-07T02:46:35.195Z,85.30
2019-06-07T02:46:53.781Z,84.78
2019-06-07T02:47:52.880Z,85.25
2019-06-07T02:48:53.016Z,86.38
2019-06-07T02:49:53.137Z,85.97
2019-06-07T02:50:53.301Z,85.36
2019-06-07T02:51:53.520Z,85.97
2019-06-07T02:52:53.670Z,86.38
2019-06-07T02:53:53.821Z,86.65
2019-06-07T02:54:53.974Z,85.99
2019-06-07T02:56:58.968Z,84.83
2019-06-07T02:57:55.538Z,84.22
2019-06-07T02:58:54.701Z,84.01
2019-06-07T03:00:16.588Z,83.25
2019-06-07T03:01:07.547Z,82.75
2019-06-07T03:01:57.246Z,79.94
2019-06-07T03:02:55.901Z,80.08
2019-06-07T03:03:55.561Z,80.43
2019-06-07T03:04:55.723Z,81.04
2019-06-07T03:05:56.416Z,82.31
2019-06-07T03:06:56.387Z,81.94
2019-06-07T03:07:57.273Z,82.69
2019-06-07T03:08:56.396Z,83.51
2019-06-07T03:09:57.569Z,83.51
2019-06-07T03:10:56.715Z,83.92
2019-06-07T03:11:56.927Z,85.09
2019-06-07T03:12:57.078Z,84.99
2019-06-07T03:13:57.235Z,85.19
2019-06-07T03:14:57.390Z,86.05
2019-06-07T03:15:57.551Z,85.74
2019-06-07T03:16:57.696Z,88.47
2019-06-07T03:17:57.842Z,87.71
2019-06-07T03:18:58.015Z,87.30
2019-06-07T03:19:58.161Z,86.51
2019-06-07T03:21:05.397Z,85.79
2019-06-07T03:22:00.433Z,84.93
2019-06-07T03:22:58.633Z,83.91
2019-06-07T03:23:58.802Z,83.76
2019-06-07T03:24:59.933Z,81.01
2019-06-07T03:25:59.174Z,81.10
2019-06-07T03:28:01.645Z,80.29
2019-06-07T03:28:59.877Z,80.74
2019-06-07T03:30:00.028Z,80.83
2019-06-07T03:31:02.904Z,82.00
2019-06-07T03:32:01.926Z,82.41
2019-06-07T03:33:00.513Z,83.06
2019-06-07T03:34:00.927Z,83.51
2019-06-07T03:35:00.794Z,83.96
2019-06-07T03:36:13.060Z,84.23
2019-06-07T03:37:03.122Z,85.30
2019-06-07T03:38:01.312Z,84.99
2019-06-07T03:39:01.936Z,85.39
2019-06-07T03:40:02.025Z,84.99
2019-06-07T03:41:01.882Z,86.01
2019-06-07T03:42:39.628Z,85.54
2019-06-07T03:43:02.928Z,86.05
2019-06-07T03:44:02.395Z,86.66
2019-06-07T03:45:02.930Z,86.77
2019-06-07T03:46:02.657Z,86.87
2019-06-07T03:47:02.793Z,86.87
2019-06-07T03:48:02.930Z,86.87
2019-06-07T03:49:03.161Z,86.93
2019-06-07T03:50:03.233Z,86.11
2019-06-07T03:51:05.002Z,86.87
2019-06-07T03:52:04.612Z,85.50
2019-06-07T03:53:03.734Z,86.01
2019-06-07T03:54:04.969Z,85.39
2019-06-07T03:55:04.467Z,85.80
2019-06-07T03:56:04.453Z,85.91
2019-06-07T03:57:04.730Z,85.71
2019-06-07T03:59:08.001Z,85.97
2019-06-07T04:00:05.446Z,86.07
2019-06-07T04:01:05.447Z,85.46
2019-06-07T04:02:05.506Z,84.84
2019-06-07T04:03:05.676Z,83.47
2019-06-07T04:04:05.865Z,83.88
2019-06-07T04:05:06.940Z,83.58
2019-06-07T04:06:06.179Z,83.47
2019-06-07T04:07:06.319Z,83.68
2019-06-07T04:08:06.940Z,83.72
2019-06-07T04:09:06.582Z,83.68
2019-06-07T04:10:55.712Z,83.88
2019-06-07T04:11:07.853Z,84.19
2019-06-07T04:12:08.095Z,85.01
2019-06-07T04:13:07.305Z,84.44
2019-06-07T04:14:07.445Z,84.33
2019-06-07T04:15:08.517Z,84.74
2019-06-07T04:16:07.799Z,84.53
2019-06-07T04:17:07.964Z,84.53
2019-06-07T04:18:08.972Z,84.74
2019-06-07T04:19:08.476Z,84.03
2019-06-07T04:20:08.499Z,83.98
2019-06-07T04:21:08.831Z,84.50
2019-06-07T04:22:10.486Z,83.64
2019-06-07T04:23:27.403Z,83.54
2019-06-07T04:24:11.153Z,83.84
2019-06-07T04:25:09.969Z,82.98
2019-06-07T04:26:09.498Z,82.68
2019-06-07T04:27:09.642Z,82.89
2019-06-07T04:28:10.009Z,82.89
2019-06-07T04:29:32.413Z,82.23
2019-06-07T04:30:11.213Z,81.31
2019-06-07T04:31:10.317Z,81.72
2019-06-07T04:32:10.492Z,81.82
2019-06-07T04:33:10.981Z,81.62
2019-06-07T04:34:10.880Z,81.10
2019-06-07T04:35:11.054Z,80.87
2019-06-07T04:36:11.219Z,81.03
2019-06-07T04:37:11.332Z,80.01
2019-06-07T04:38:11.484Z,80.01
2019-06-07T04:39:11.603Z,79.80
2019-06-07T04:40:11.746Z,79.91
2019-06-07T04:41:12.466Z,79.70
2019-06-07T04:42:12.051Z,78.88
2019-06-07T04:43:12.187Z,79.91
2019-06-07T04:44:13.013Z,79.84
2019-06-07T04:45:33.103Z,80.56
2019-06-07T04:46:14.691Z,80.35
2019-06-07T04:47:13.472Z,80.56
2019-06-07T04:48:13.101Z,80.15
2019-06-07T04:49:13.273Z,80.42
2019-06-07T04:50:13.444Z,80.21
2019-06-07T04:51:14.121Z,80.42
2019-06-07T04:52:13.825Z,80.11
2019-06-07T04:53:14.008Z,80.07
2019-06-07T04:54:14.094Z,80.21
2019-06-07T04:55:14.987Z,80.28
2019-06-07T04:56:14.497Z,79.66
2019-06-07T04:57:14.671Z,79.77
2019-06-07T04:58:14.985Z,79.63
2019-06-07T05:00:00.151Z,79.12
2019-06-07T05:00:46.839Z,80.14
2019-06-07T05:01:27.253Z,79.83
2019-06-07T05:02:17.546Z,79.39
2019-06-07T05:03:15.790Z,79.69
2019-06-07T05:04:15.951Z,79.80
2019-06-07T05:05:16.972Z,79.86
2019-06-07T05:06:16.373Z,78.74
2019-06-07T05:07:17.504Z,78.80
2019-06-07T05:08:28.177Z,77.55
2019-06-07T05:09:18.758Z,77.44
2019-06-07T05:10:16.885Z,77.51
2019-06-07T05:11:17.513Z,76.59
2019-06-07T05:12:17.267Z,74.32
2019-06-07T05:13:17.432Z,74.32
2019-06-07T05:14:17.579Z,73.06
2019-06-07T05:15:17.999Z,73.84
2019-06-07T05:16:17.896Z,72.21
2019-06-07T05:17:18.079Z,71.40
2019-06-07T05:18:18.305Z,71.36
2019-06-07T05:19:18.464Z,71.97
2019-06-07T05:20:19.467Z,72.04
2019-06-07T05:21:18.863Z,71.53
2019-06-07T05:22:19.068Z,71.33
2019-06-07T05:24:00.281Z,71.16
2019-06-07T05:24:21.436Z,73.16
2019-06-07T05:25:19.653Z,71.84
2019-06-07T05:26:19.823Z,73.46
2019-06-07T05:27:19.991Z,71.23
2019-06-07T05:28:20.169Z,71.84
2019-06-07T05:29:20.345Z,72.48
2019-06-07T05:30:59.483Z,72.28
2019-06-07T05:31:22.702Z,72.58
2019-06-07T05:32:20.846Z,71.91
2019-06-07T05:33:20.988Z,71.30
2019-06-07T05:34:21.136Z,72.08
2019-06-07T05:35:21.262Z,72.17
2019-06-07T05:36:22.980Z,71.57
2019-06-07T05:37:21.623Z,71.12
2019-06-07T05:38:21.756Z,71.73
2019-06-07T05:39:21.897Z,72.14
2019-06-07T05:40:22.022Z,71.84
2019-06-07T05:41:22.168Z,72.25
2019-06-07T05:42:22.330Z,72.25
2019-06-07T05:43:22.464Z,72.34
2019-06-07T05:44:22.633Z,72.75
2019-06-07T05:45:22.761Z,73.16
2019-06-07T05:46:22.883Z,73.16
2019-06-07T05:47:23.038Z,72.92
2019-06-07T05:48:23.195Z,72.25
2019-06-07T05:49:23.984Z,72.72
2019-06-07T05:50:39.243Z,71.12
2019-06-07T05:51:25.734Z,72.25
2019-06-07T05:52:23.848Z,71.12
2019-06-07T05:53:24.008Z,70.68
2019-06-07T05:54:24.152Z,72.48
2019-06-07T05:55:24.272Z,69.54
2019-06-07T05:56:24.523Z,71.53
2019-06-07T05:57:24.668Z,69.43
2019-06-07T05:58:24.833Z,69.64
2019-06-07T05:59:24.957Z,69.37
2019-06-07T06:00:25.198Z,69.37
2019-06-07T06:01:43.109Z,69.47
2019-06-07T06:02:27.425Z,70.59
2019-06-07T06:03:59.097Z,69.64
2019-06-07T06:04:25.799Z,70.04
2019-06-07T06:05:34.394Z,70.65
2019-06-07T06:06:28.260Z,70.96
2019-06-07T06:07:26.470Z,69.81
2019-06-07T06:08:26.625Z,69.23
2019-06-07T06:09:26.838Z,70.99
2019-06-07T06:10:26.995Z,70.28
2019-06-07T06:11:43.328Z,71.20
2019-06-07T06:12:35.174Z,70.99
2019-06-07T06:13:29.597Z,71.91
2019-06-07T06:14:27.860Z,69.84
2019-06-07T06:15:42.266Z,71.09
2019-06-07T06:16:29.517Z,71.50
2019-06-07T06:17:28.523Z,70.96
2019-06-07T06:18:28.664Z,71.06
2019-06-07T06:19:29.035Z,70.65
2019-06-07T06:20:33.201Z,71.06
2019-06-07T06:21:31.090Z,70.92
2019-06-07T06:22:29.286Z,70.11
2019-06-07T06:23:29.488Z,69.27
2019-06-07T06:24:29.656Z,70.48
2019-06-07T06:25:33.048Z,69.51
2019-06-07T06:26:31.062Z,69.74
2019-06-07T06:28:03.198Z,68.05
2019-06-07T06:28:31.348Z,67.65
2019-06-07T06:29:30.571Z,66.63
2019-06-07T06:30:30.717Z,66.43
2019-06-07T06:31:31.027Z,67.28
2019-06-07T06:32:41.715Z,65.73
2019-06-07T06:33:34.815Z,63.09
2019-06-07T06:34:32.577Z,63.47
2019-06-07T06:35:32.516Z,63.07
2019-06-07T06:36:31.885Z,63.37
2019-06-07T06:37:33.033Z,65.29
2019-06-07T06:38:32.131Z,64.28
2019-06-07T06:39:32.271Z,62.63
2019-06-07T06:40:32.448Z,60.68
2019-06-07T06:41:46.106Z,60.65
2019-06-07T06:42:34.826Z,60.45
2019-06-07T06:43:33.045Z,60.88
2019-06-07T06:44:33.181Z,60.98
2019-06-07T06:45:33.324Z,62.12
2019-06-07T06:46:42.046Z,62.66
2019-06-07T06:47:35.621Z,62.86
2019-06-07T06:48:34.520Z,62.15
2019-06-07T06:49:34.520Z,62.99
2019-06-07T06:50:34.176Z,62.76
2019-06-07T06:51:34.543Z,62.05
2019-06-07T06:52:34.462Z,61.08
2019-06-07T06:53:35.533Z,60.96
2019-06-07T06:54:40.555Z,61.29
2019-06-07T06:55:37.043Z,61.52
2019-06-07T06:56:35.133Z,62.96
2019-06-07T06:57:35.295Z,63.30
2019-06-07T06:59:18.369Z,63.30
2019-06-07T06:59:39.505Z,64.82
2019-06-07T07:00:48.975Z,64.51
2019-06-07T07:01:37.543Z,64.01
2019-06-07T07:03:26.945Z,64.41
2019-06-07T07:03:57.401Z,64.01
2019-06-07T07:04:38.386Z,64.31
2019-06-07T07:05:36.605Z,63.47
2019-06-07T07:06:36.755Z,64.18
2019-06-07T07:07:36.870Z,63.27
2019-06-07T07:08:37.527Z,62.93
2019-06-07T07:09:37.152Z,64.15
2019-06-07T07:10:37.306Z,63.24
2019-06-07T07:11:52.341Z,64.35
2019-06-07T07:12:40.620Z,62.90
2019-06-07T07:13:37.775Z,63.08
2019-06-07T07:14:37.918Z,61.46
2019-06-07T07:15:38.055Z,60.09
2019-06-07T07:16:39.243Z,59.15
2019-06-07T07:17:50.876Z,59.33
2019-06-07T07:18:41.757Z,59.45
2019-06-07T07:19:38.762Z,58.75
2019-06-07T07:20:38.894Z,59.48
2019-06-07T07:21:39.073Z,59.51
2019-06-07T07:22:39.591Z,59.44
2019-06-07T07:23:39.379Z,59.64
2019-06-07T07:24:39.544Z,59.51
2019-06-07T07:25:39.743Z,59.74
2019-06-07T07:26:39.923Z,59.41
2019-06-07T07:27:40.132Z,59.69
2019-06-07T07:28:40.292Z,58.72
2019-06-07T07:29:40.437Z,58.14
2019-06-07T07:30:41.962Z,58.85
2019-06-07T07:31:40.765Z,58.54
2019-06-07T07:32:40.977Z,58.78
2019-06-07T07:34:23.848Z,58.65
2019-06-07T07:34:46.020Z,57.14
2019-06-07T07:36:05.019Z,57.43
2019-06-07T07:36:44.810Z,57.61
2019-06-07T07:37:43.757Z,57.51
2019-06-07T07:38:48.965Z,56.70
2019-06-07T07:39:45.310Z,57.43
2019-06-07T07:42:10.836Z,56.35
2019-06-07T07:42:46.895Z,57.67
2019-06-07T07:43:49.225Z,57.56
2019-06-07T07:44:45.029Z,58.25
2019-06-07T07:45:45.909Z,57.67
2019-06-07T07:46:45.011Z,59.28
2019-06-07T07:48:05.485Z,58.50
2019-06-07T07:48:46.022Z,59.58
2019-06-07T07:49:48.476Z,59.15
2019-06-07T07:50:49.758Z,57.56
2019-06-07T07:51:48.882Z,57.69
2019-06-07T07:52:48.165Z,58.67
2019-06-07T07:53:54.626Z,57.43
2019-06-07T07:54:46.864Z,56.81
2019-06-07T07:55:45.763Z,55.97
2019-06-07T07:56:47.025Z,57.28
2019-06-07T07:57:46.633Z,57.34
2019-06-07T07:58:50.326Z,57.64
2019-06-07T08:00:03.260Z,58.87
2019-06-07T08:00:52.897Z,59.18
2019-06-07T08:01:49.244Z,59.28
2019-06-07T08:02:48.830Z,59.08
2019-06-07T08:03:48.183Z,59.08
2019-06-07T08:05:49.693Z,59.08
2019-06-07T08:06:48.912Z,59.73
2019-06-07T08:07:49.990Z,59.20
2019-06-07T08:08:48.856Z,57.38
2019-06-07T08:09:51.476Z,59.02
2019-06-07T08:10:52.608Z,58.72
2019-06-07T08:11:52.957Z,59.33
2019-06-07T08:13:08.893Z,59.50
2019-06-07T08:13:50.625Z,57.58
2019-06-07T08:14:51.127Z,57.84
2019-06-07T08:15:53.323Z,59.35
2019-06-07T08:16:51.901Z,58.85
2019-06-07T08:17:51.445Z,58.87
2019-06-07T08:18:56.295Z,59.28
2019-06-07T08:19:54.247Z,59.08
2019-06-07T08:21:08.801Z,59.81
2019-06-07T08:21:53.055Z,61.51
2019-06-07T08:22:50.106Z,59.08
2019-06-07T08:23:57.685Z,59.18
2019-06-07T08:24:53.711Z,59.48
2019-06-07T08:25:52.716Z,58.58
2019-06-07T08:27:12.984Z,59.38
2019-06-07T08:27:56.001Z,59.56
2019-06-07T08:28:54.714Z,59.15
2019-06-07T08:30:08.976Z,59.08
2019-06-07T08:30:58.257Z,59.58
2019-06-07T08:31:55.807Z,58.95
2019-06-07T08:32:57.820Z,60.19
2019-06-07T08:33:57.061Z,59.89
2019-06-07T08:34:56.272Z,59.69
2019-06-07T08:36:10.388Z,59.25
2019-06-07T08:36:58.408Z,59.35
2019-06-07T08:38:21.549Z,59.05
2019-06-07T08:38:57.971Z,59.25
2019-06-07T08:39:57.562Z,58.75
2019-06-07T08:40:59.108Z,58.65
2019-06-07T08:42:13.826Z,57.31
2019-06-07T08:43:18.159Z,57.31
2019-06-07T08:43:58.457Z,58.72
2019-06-07T08:45:01.545Z,57.10
2019-06-07T08:46:02.271Z,57.01
2019-06-07T08:47:12.602Z,56.70
2019-06-07T08:48:01.981Z,57.61
2019-06-07T08:49:01.399Z,57.31
2019-06-07T08:50:04.398Z,58.22
2019-06-07T08:51:02.217Z,57.61
2019-06-07T08:52:05.662Z,57.89
2019-06-07T08:53:03.661Z,56.57
2019-06-07T08:54:18.685Z,56.24
2019-06-07T08:55:03.384Z,56.17
2019-06-07T08:56:04.426Z,56.45
2019-06-07T08:57:17.973Z,55.74
2019-06-07T08:58:04.075Z,56.62
2019-06-07T08:59:03.020Z,56.52
2019-06-07T09:00:06.643Z,56.72
2019-06-07T09:01:07.770Z,56.12
2019-06-07T09:02:03.257Z,55.71
2019-06-07T09:03:05.123Z,55.29
2019-06-07T09:04:06.529Z,54.88
2019-06-07T09:05:06.861Z,54.55
2019-06-07T09:06:06.584Z,54.73
2019-06-07T09:07:09.069Z,54.33
2019-06-07T09:08:23.628Z,53.63
2019-06-07T09:09:03.332Z,54.25
2019-06-07T09:10:08.285Z,54.43
2019-06-07T09:11:06.331Z,54.83
2019-06-07T09:12:08.063Z,51.68
2019-06-07T09:13:09.953Z,51.89
2019-06-07T09:14:08.410Z,52.69
2019-06-07T09:15:14.948Z,52.29
2019-06-07T09:16:08.106Z,52.92
2019-06-07T09:17:08.774Z,54.13
2019-06-07T09:18:37.943Z,54.25
2019-06-07T09:19:10.095Z,54.15
2019-06-07T09:20:10.433Z,54.53
2019-06-07T09:21:08.887Z,53.42
2019-06-07T09:22:10.292Z,52.69
2019-06-07T09:23:15.464Z,53.77
2019-06-07T09:24:09.044Z,51.86
2019-06-07T09:25:14.690Z,52.80
2019-06-07T09:26:15.447Z,53.90
2019-06-07T09:27:07.654Z,54.30
2019-06-07T09:28:14.391Z,55.23
2019-06-07T09:29:08.690Z,54.93
2019-06-07T09:30:15.229Z,55.11
2019-06-07T09:31:09.773Z,54.83
2019-06-07T09:32:10.936Z,54.20
2019-06-07T09:33:07.053Z,53.77
2019-06-07T09:34:13.711Z,52.80
2019-06-07T09:35:11.329Z,55.21
2019-06-07T09:36:10.238Z,54.00
2019-06-07T09:37:54.744Z,53.17
2019-06-07T09:38:18.131Z,53.05
2019-06-07T09:39:10.085Z,52.87
2019-06-07T09:40:21.713Z,53.88
2019-06-07T09:41:08.099Z,53.40
2019-06-07T09:42:10.065Z,52.49
2019-06-07T09:43:55.380Z,53.40
2019-06-07T09:44:21.423Z,53.80
2019-06-07T09:45:11.704Z,55.08
2019-06-07T09:46:12.817Z,53.37
2019-06-07T09:47:30.156Z,54.55
2019-06-07T09:48:13.333Z,54.68
2019-06-07T09:49:18.817Z,53.88
2019-06-07T09:50:12.029Z,53.55
2019-06-07T09:51:19.514Z,52.64
2019-06-07T09:52:11.038Z,51.84
2019-06-07T09:53:21.050Z,51.94
2019-06-07T09:54:11.477Z,52.17
2019-06-07T09:55:23.119Z,50.66
2019-06-07T09:56:12.109Z,51.86
2019-06-07T09:57:16.797Z,52.77
2019-06-07T09:58:48.543Z,51.86
2019-06-07T09:59:12.860Z,52.47
2019-06-07T10:00:37.084Z,53.88
2019-06-07T10:01:13.748Z,53.25
2019-06-07T10:02:13.746Z,51.64
2019-06-07T10:03:20.101Z,52.84
2019-06-07T10:04:28.557Z,51.51
2019-06-07T10:05:14.071Z,50.71
2019-06-07T10:06:13.574Z,50.61
2019-06-07T10:07:30.190Z,52.04
2019-06-07T10:08:54.750Z,52.14
2019-06-07T10:11:12.984Z,51.74
2019-06-07T10:12:11.203Z,52.01
2019-06-07T10:13:11.351Z,50.38
2019-06-07T10:14:11.534Z,50.38
2019-06-07T10:15:11.668Z,50.48
2019-06-07T10:16:11.816Z,50.38
2019-06-07T10:17:11.978Z,50.96
2019-06-07T10:18:12.128Z,50.46
2019-06-07T10:19:12.291Z,50.96
2019-06-07T10:20:12.423Z,50.36
2019-06-07T10:21:15.240Z,50.26
2019-06-07T10:22:14.587Z,50.36
2019-06-07T10:23:13.588Z,50.44
2019-06-07T10:24:13.129Z,50.63
2019-06-07T10:25:13.267Z,50.92
2019-06-07T10:26:14.077Z,50.01
2019-06-07T10:27:14.086Z,50.21
2019-06-07T10:28:13.742Z,48.71
2019-06-07T10:29:14.587Z,49.84
2019-06-07T10:30:14.117Z,49.74
2019-06-07T10:31:14.282Z,49.93
2019-06-07T10:32:14.404Z,50.56
2019-06-07T10:33:14.576Z,50.44
2019-06-07T10:34:14.731Z,50.81
2019-06-07T10:35:16.499Z,50.13
2019-06-07T10:36:16.141Z,50.21
2019-06-07T10:37:15.899Z,50.04
2019-06-07T10:38:16.371Z,50.31
2019-06-07T10:39:15.618Z,49.31
2019-06-07T10:40:15.746Z,50.76
2019-06-07T10:41:16.591Z,48.54
2019-06-07T10:42:16.105Z,48.52
2019-06-07T10:43:17.081Z,49.74
2019-06-07T10:44:16.446Z,48.14
2019-06-07T10:45:16.593Z,49.91
2019-06-07T10:46:16.747Z,48.52
2019-06-07T10:47:16.869Z,48.11
2019-06-07T10:48:16.993Z,47.94
2019-06-07T10:49:18.082Z,48.66
2019-06-07T10:50:17.301Z,48.57
2019-06-07T10:51:17.598Z,48.46
2019-06-07T10:52:17.625Z,48.36
2019-06-07T10:53:17.772Z,48.74
2019-06-07T10:54:27.916Z,48.32
2019-06-07T10:55:20.051Z,47.99
2019-06-07T10:56:18.290Z,48.61
2019-06-07T10:57:18.440Z,47.72
2019-06-07T10:58:18.617Z,47.24
2019-06-07T10:59:18.756Z,47.92
2019-06-07T11:00:18.939Z,47.84
2019-06-07T11:01:19.119Z,47.54
2019-06-07T11:02:19.295Z,48.34
2019-06-07T11:03:19.457Z,46.74
2019-06-07T11:04:20.607Z,46.74
2019-06-07T11:05:19.855Z,45.94
2019-06-07T11:06:20.116Z,46.44
2019-06-07T11:07:21.127Z,46.12
2019-06-07T11:08:21.109Z,46.24
2019-06-07T11:09:20.491Z,45.31
2019-06-07T11:10:20.644Z,46.39
2019-06-07T11:11:20.822Z,48.10
2019-06-07T11:12:21.119Z,45.57
2019-06-07T11:13:22.102Z,45.07
2019-06-07T11:14:21.372Z,45.29
2019-06-07T11:15:21.538Z,45.87
2019-06-07T11:16:21.663Z,46.27
2019-06-07T11:17:21.836Z,46.17
2019-06-07T11:18:21.995Z,46.30
2019-06-07T11:19:22.156Z,46.50
2019-06-07T11:20:22.318Z,46.50
2019-06-07T11:21:22.521Z,45.20
2019-06-07T11:22:23.605Z,46.89
2019-06-07T11:23:22.843Z,46.59
2019-06-07T11:24:24.710Z,46.00
2019-06-07T11:25:24.194Z,46.19
2019-06-07T11:26:23.332Z,46.42
2019-06-07T11:27:24.115Z,46.80
2019-06-07T11:28:23.627Z,48.27
2019-06-07T11:29:24.630Z,46.30
2019-06-07T11:30:24.044Z,46.67
2019-06-07T11:31:25.202Z,46.80
2019-06-07T11:32:24.452Z,46.89
2019-06-07T11:33:24.595Z,46.77
2019-06-07T11:34:24.735Z,45.75
2019-06-07T11:35:25.626Z,46.05
2019-06-07T11:36:25.145Z,46.25
2019-06-07T11:37:25.145Z,45.73
2019-06-07T11:38:26.123Z,45.71
2019-06-07T11:39:25.499Z,45.78
2019-06-07T11:40:34.410Z,42.89
2019-06-07T11:41:27.884Z,43.99
2019-06-07T11:42:26.616Z,46.58
2019-06-07T11:43:26.104Z,44.09
2019-06-07T11:44:26.251Z,45.40
2019-06-07T11:45:27.117Z,44.91
2019-06-07T11:46:26.546Z,44.03
2019-06-07T11:47:27.617Z,43.53
2019-06-07T11:48:27.618Z,43.53
2019-06-07T11:49:27.112Z,43.05
2019-06-07T11:50:28.109Z,44.13
2019-06-07T11:51:27.505Z,43.83
2019-06-07T11:52:27.640Z,43.41
2019-06-07T11:53:27.805Z,42.99
2019-06-07T11:54:28.610Z,42.10
2019-06-07T11:55:28.099Z,41.50
2019-06-07T11:56:28.271Z,42.19
2019-06-07T11:57:29.118Z,42.40
2019-06-07T11:58:28.647Z,43.09
2019-06-07T11:59:29.612Z,42.87
2019-06-07T12:00:29.025Z,42.18
2019-06-07T12:01:29.194Z,42.07
2019-06-07T12:02:30.146Z,42.15
2019-06-07T12:03:29.545Z,41.66
2019-06-07T12:04:34.728Z,41.83
2019-06-07T12:05:31.956Z,42.33
2019-06-07T12:06:30.153Z,39.53
2019-06-07T12:07:30.291Z,40.74
2019-06-07T12:08:30.429Z,42.03
2019-06-07T12:09:30.605Z,41.02
2019-06-07T12:10:42.016Z,40.52
2019-06-07T12:11:31.986Z,41.69
2019-06-07T12:12:31.258Z,40.20
2019-06-07T12:13:32.133Z,40.60
2019-06-07T12:14:32.135Z,40.40
2019-06-07T12:15:31.662Z,40.52
2019-06-07T12:16:32.625Z,41.22
2019-06-07T12:17:31.986Z,41.09
2019-06-07T12:18:32.117Z,38.81
2019-06-07T12:19:32.223Z,39.61
2019-06-07T12:20:33.144Z,40.40
2019-06-07T12:21:32.628Z,39.97
2019-06-07T12:22:32.758Z,38.57
2019-06-07T12:23:33.161Z,40.05
2019-06-07T12:24:33.028Z,39.45
2019-06-07T12:25:33.257Z,37.66
2019-06-07T12:26:33.485Z,38.56
2019-06-07T12:27:34.142Z,36.57
2019-06-07T12:28:33.874Z,36.58
2019-06-07T12:29:34.138Z,34.98
2019-06-07T12:30:35.143Z,35.67
2019-06-07T12:31:34.493Z,36.75
2019-06-07T12:32:34.609Z,36.65
2019-06-07T12:33:34.832Z,36.22
2019-06-07T12:34:34.867Z,34.63
2019-06-07T12:35:35.644Z,34.43
2019-06-07T12:36:35.160Z,33.73
2019-06-07T12:37:43.800Z,35.44
2019-06-07T12:38:37.560Z,34.34
2019-06-07T12:39:35.762Z,34.63
2019-06-07T12:40:35.921Z,34.33
2019-06-07T12:41:36.045Z,36.32
2019-06-07T12:42:36.196Z,35.62
2019-06-07T12:43:37.151Z,33.14
2019-06-07T12:44:37.135Z,35.64
2019-06-07T12:45:44.901Z,35.67
2019-06-07T12:46:38.908Z,36.27
2019-06-07T12:47:37.027Z,36.66
2019-06-07T12:48:37.683Z,36.45
2019-06-07T12:49:37.676Z,36.25
2019-06-07T12:50:43.010Z,36.23
2019-06-07T12:51:40.628Z,36.13
2019-06-07T12:52:38.861Z,35.14
2019-06-07T12:53:38.011Z,33.37
2019-06-07T12:54:38.222Z,34.28
2019-06-07T12:55:38.420Z,35.06
2019-06-07T12:56:39.137Z,35.06
2019-06-07T12:57:38.783Z,35.08
2019-06-07T12:58:39.667Z,33.98
2019-06-07T12:59:40.123Z,34.30
2019-06-07T13:00:40.297Z,36.00
2019-06-07T13:01:39.450Z,36.60